createdAt,value
2018-12-05T00:01:33.342Z,98723.38
2018-12-05T00:04:02.789Z,98727.41
2018-12-05T00:06:32.190Z,98724.47
2018-12-05T00:09:01.566Z,98729.32
2018-12-05T00:11:30.936Z,98729.64
2018-12-05T00:14:00.301Z,98729.37
2018-12-05T00:16:29.578Z,98726.61
2018-12-05T00:18:58.914Z,98719.64
2018-12-05T00:21:28.399Z,98725.59
2018-12-05T00:23:57.715Z,98729.86
2018-12-05T00:26:26.978Z,98721.95
2018-12-05T00:28:56.273Z,98720.52
2018-12-05T00:31:25.711Z,98718.00
2018-12-05T00:33:55.020Z,98711.59
2018-12-05T00:36:24.339Z,98712.73
2018-12-05T00:38:53.618Z,98717.01
2018-12-05T00:41:22.923Z,98719.20
2018-12-05T00:43:52.208Z,98708.50
2018-12-05T00:46:21.517Z,98708.70
2018-12-05T00:48:50.795Z,98721.29
2018-12-05T00:51:20.098Z,98714.38
2018-12-05T00:53:49.423Z,98716.86
2018-12-05T00:56:18.716Z,98710.97
2018-12-05T00:58:48.127Z,98717.67
2018-12-05T01:01:17.421Z,98725.74
2018-12-05T01:03:46.817Z,98725.41
2018-12-05T01:06:16.134Z,98729.81
2018-12-05T01:08:45.530Z,98740.14
2018-12-05T01:11:14.820Z,98737.23
2018-12-05T01:13:44.240Z,98740.19
2018-12-05T01:16:13.532Z,98740.09
2018-12-05T01:18:42.949Z,98729.72
2018-12-05T01:21:12.350Z,98725.19
2018-12-05T01:23:41.726Z,98725.59
2018-12-05T01:26:11.050Z,98733.22
2018-12-05T01:28:40.442Z,98732.90
2018-12-05T01:31:09.763Z,98742.63
2018-12-05T01:33:39.045Z,98738.50
2018-12-05T01:36:08.327Z,98732.90
2018-12-05T01:38:37.639Z,98732.84
2018-12-05T01:41:06.941Z,98728.34
2018-12-05T01:43:41.350Z,98717.62
2018-12-05T01:46:10.760Z,98712.78
2018-12-05T01:48:40.054Z,98704.72
2018-12-05T01:51:09.324Z,98705.20
2018-12-05T01:53:38.650Z,98706.64
2018-12-05T01:56:07.997Z,98702.73
2018-12-05T01:58:37.451Z,98699.20
2018-12-05T02:01:06.591Z,98696.20
2018-12-05T02:03:35.924Z,98695.08
2018-12-05T02:06:05.464Z,98690.90
2018-12-05T02:08:34.793Z,98693.70
2018-12-05T02:11:04.277Z,98696.50
2018-12-05T02:13:33.559Z,98700.13
2018-12-05T02:16:02.878Z,98690.63
2018-12-05T02:18:32.223Z,98686.55
2018-12-05T02:21:01.567Z,98685.45
2018-12-05T02:23:30.956Z,98684.67
2018-12-05T02:26:00.418Z,98683.45
2018-12-05T02:28:29.803Z,98688.31
2018-12-05T02:30:59.207Z,98689.80
2018-12-05T02:33:29.120Z,98684.98
2018-12-05T02:35:58.438Z,98689.75
2018-12-05T02:38:27.845Z,98675.92
2018-12-05T02:40:57.139Z,98671.56
2018-12-05T02:43:26.670Z,98664.38
2018-12-05T02:45:56.051Z,98657.64
2018-12-05T02:48:25.468Z,98661.09
2018-12-05T02:50:54.976Z,98666.72
2018-12-05T02:53:24.354Z,98664.17
2018-12-05T02:55:53.691Z,98657.30
2018-12-05T02:58:23.074Z,98659.81
2018-12-05T03:00:52.373Z,98660.31
2018-12-05T03:03:21.806Z,98659.97
2018-12-05T03:05:51.114Z,98658.91
2018-12-05T03:08:20.579Z,98656.23
2018-12-05T03:10:49.889Z,98657.27
2018-12-05T03:13:19.241Z,98658.16
2018-12-05T03:15:48.530Z,98659.16
2018-12-05T03:18:17.813Z,98670.50
2018-12-05T03:20:47.201Z,98676.91
2018-12-05T03:23:16.517Z,98675.73
2018-12-05T03:25:45.829Z,98689.55
2018-12-05T03:28:15.212Z,98693.45
2018-12-05T03:33:12.545Z,98695.23
2018-12-05T03:35:41.833Z,98694.33
2018-12-05T03:38:11.151Z,98690.50
2018-12-05T03:40:40.435Z,98695.69
2018-12-05T03:43:09.828Z,98699.76
2018-12-05T03:45:39.174Z,98706.34
2018-12-05T03:48:08.607Z,98711.94
2018-12-05T03:50:37.953Z,98715.84
2018-12-05T03:53:07.258Z,98703.47
2018-12-05T03:55:36.630Z,98690.45
2018-12-05T03:58:06.112Z,98697.48
2018-12-05T04:00:35.522Z,98694.81
2018-12-05T04:03:05.083Z,98696.70
2018-12-05T04:05:34.505Z,98695.17
2018-12-05T04:08:04.039Z,98685.83
2018-12-05T04:10:34.348Z,98679.36
2018-12-05T04:13:03.657Z,98669.14
2018-12-05T04:15:33.081Z,98662.63
2018-12-05T04:18:02.365Z,98666.84
2018-12-05T04:20:31.693Z,98666.51
2018-12-05T04:23:01.126Z,98670.46
2018-12-05T04:25:30.482Z,98663.45
2018-12-05T04:27:59.887Z,98672.63
2018-12-05T04:30:29.338Z,98661.47
2018-12-05T04:32:58.849Z,98660.59
2018-12-05T04:35:28.146Z,98651.70
2018-12-05T04:37:57.435Z,98651.44
2018-12-05T04:40:26.751Z,98650.50
2018-12-05T04:42:56.036Z,98652.14
2018-12-05T04:45:25.429Z,98646.72
2018-12-05T04:47:55.020Z,98662.78
2018-12-05T04:50:24.353Z,98659.07
2018-12-05T04:52:53.701Z,98669.87
2018-12-05T04:55:23.089Z,98672.20
2018-12-05T04:57:52.453Z,98667.63
2018-12-05T05:00:21.833Z,98663.40
2018-12-05T05:02:51.254Z,98670.04
2018-12-05T05:05:20.874Z,98664.56
2018-12-05T05:07:50.167Z,98663.45
2018-12-05T05:10:19.590Z,98659.55
2018-12-05T05:12:48.948Z,98659.79
2018-12-05T05:15:18.264Z,98658.30
2018-12-05T05:17:47.640Z,98654.29
2018-12-05T05:20:18.398Z,98666.82
2018-12-05T05:22:47.697Z,98670.28
2018-12-05T05:25:17.253Z,98667.34
2018-12-05T05:27:46.598Z,98677.02
2018-12-05T05:30:16.123Z,98680.42
2018-12-05T05:35:31.640Z,98693.00
2018-12-05T05:38:00.973Z,98692.68
2018-12-05T05:40:30.405Z,98683.95
2018-12-05T05:42:59.707Z,98682.02
2018-12-05T05:45:29.044Z,98681.91
2018-12-05T05:47:58.412Z,98677.36
2018-12-05T05:50:27.724Z,98678.39
2018-12-05T05:52:57.096Z,98677.52
2018-12-05T05:55:26.463Z,98684.56
2018-12-05T05:57:55.828Z,98685.48
2018-12-05T06:00:25.299Z,98682.91
2018-12-05T06:02:54.744Z,98674.00
2018-12-05T06:05:24.086Z,98677.84
2018-12-05T06:07:53.453Z,98676.90
2018-12-05T06:10:22.934Z,98675.37
2018-12-05T06:12:52.296Z,98672.12
2018-12-05T06:15:21.737Z,98674.97
2018-12-05T06:17:51.051Z,98672.63
2018-12-05T06:20:20.407Z,98666.91
2018-12-05T06:22:49.739Z,98674.82
2018-12-05T06:25:19.136Z,98677.36
2018-12-05T06:27:48.475Z,98680.70
2018-12-05T06:30:17.932Z,98683.08
2018-12-05T06:32:47.344Z,98677.95
2018-12-05T06:35:16.683Z,98689.20
2018-12-05T06:37:46.076Z,98689.33
2018-12-05T06:40:15.437Z,98694.05
2018-12-05T06:42:44.773Z,98689.50
2018-12-05T06:45:14.200Z,98694.39
2018-12-05T06:47:43.583Z,98699.00
2018-12-05T06:50:13.031Z,98696.03
2018-12-05T06:52:42.500Z,98696.68
2018-12-05T06:55:11.796Z,98696.16
2018-12-05T06:57:41.162Z,98688.83
2018-12-05T07:00:10.776Z,98697.73
2018-12-05T07:02:40.227Z,98696.48
2018-12-05T07:05:09.857Z,98697.30
2018-12-05T07:07:39.326Z,98693.61
2018-12-05T07:10:08.711Z,98688.50
2018-12-05T07:12:38.053Z,98692.84
2018-12-05T07:15:08.326Z,98686.57
2018-12-05T07:17:37.699Z,98689.56
2018-12-05T07:20:10.984Z,98689.50
2018-12-05T07:22:40.324Z,98695.59
2018-12-05T07:25:09.634Z,98705.59
2018-12-05T07:27:39.113Z,98709.05
2018-12-05T07:30:08.761Z,98703.59
2018-12-05T07:32:38.100Z,98694.54
2018-12-05T07:35:08.078Z,98699.14
2018-12-05T07:37:37.380Z,98689.85
2018-12-05T07:40:06.973Z,98686.06
2018-12-05T07:42:36.312Z,98694.51
2018-12-05T07:45:06.060Z,98687.26
2018-12-05T07:47:35.543Z,98684.13
2018-12-05T07:50:05.688Z,98686.52
2018-12-05T07:52:35.313Z,98687.64
2018-12-05T07:55:06.208Z,98687.39
2018-12-05T07:57:35.629Z,98678.47
2018-12-05T08:00:06.453Z,98681.87
2018-12-05T08:02:35.815Z,98685.45
2018-12-05T08:05:05.623Z,98695.70
2018-12-05T08:07:35.224Z,98690.91
2018-12-05T08:10:04.843Z,98693.23
2018-12-05T08:12:34.246Z,98699.39
2018-12-05T08:15:03.709Z,98695.20
2018-12-05T08:17:33.057Z,98690.52
2018-12-05T08:20:02.565Z,98691.98
2018-12-05T08:22:31.904Z,98697.77
2018-12-05T08:25:01.340Z,98694.36
2018-12-05T08:27:30.662Z,98696.77
2018-12-05T08:30:00.058Z,98694.06
2018-12-05T08:32:29.404Z,98700.10
2018-12-05T08:34:58.899Z,98695.39
2018-12-05T08:37:28.254Z,98695.67
2018-12-05T08:39:57.636Z,98697.53
2018-12-05T08:42:27.020Z,98703.59
2018-12-05T08:44:56.478Z,98701.97
2018-12-05T08:47:25.853Z,98705.86
2018-12-05T08:49:55.179Z,98714.58
2018-12-05T08:52:24.578Z,98711.94
2018-12-05T08:54:53.880Z,98715.51
2018-12-05T08:57:23.304Z,98712.50
2018-12-05T08:59:52.606Z,98711.72
2018-12-05T09:02:23.064Z,98717.28
2018-12-05T09:04:52.660Z,98713.04
2018-12-05T09:07:22.081Z,98723.38
2018-12-05T09:09:51.383Z,98716.95
2018-12-05T09:12:20.721Z,98720.49
2018-12-05T09:14:50.019Z,98720.94
2018-12-05T09:17:19.356Z,98716.73
2018-12-05T09:19:48.688Z,98710.43
2018-12-05T09:22:18.034Z,98715.38
2018-12-05T09:24:47.333Z,98703.88
2018-12-05T09:27:16.666Z,98707.83
2018-12-05T09:29:46.022Z,98706.19
2018-12-05T09:32:15.372Z,98705.30
2018-12-05T09:34:44.664Z,98708.44
2018-12-05T09:37:13.981Z,98699.09
2018-12-05T09:39:43.328Z,98696.67
2018-12-05T09:42:12.650Z,98694.91
2018-12-05T09:44:41.965Z,98685.59
2018-12-05T09:47:15.882Z,98704.21
2018-12-05T09:49:42.691Z,98695.27
2018-12-05T09:52:12.096Z,98698.80
2018-12-05T09:54:41.400Z,98696.27
2018-12-05T09:57:10.780Z,98701.76
2018-12-05T09:59:40.125Z,98702.67
2018-12-05T10:02:09.536Z,98701.28
2018-12-05T10:04:38.827Z,98695.80
2018-12-05T10:07:08.135Z,98693.46
2018-12-05T10:09:37.481Z,98680.53
2018-12-05T10:12:06.921Z,98673.22
2018-12-05T10:14:36.245Z,98679.81
2018-12-05T10:17:05.611Z,98671.36
2018-12-05T10:19:35.032Z,98669.01
2018-12-05T10:22:04.641Z,98662.17
2018-12-05T10:24:33.925Z,98661.06
2018-12-05T10:27:03.355Z,98657.31
2018-12-05T10:29:32.708Z,98656.70
2018-12-05T10:32:02.044Z,98651.70
2018-12-05T10:34:31.305Z,98650.64
2018-12-05T10:37:00.598Z,98641.47
2018-12-05T10:39:29.850Z,98640.05
2018-12-05T10:41:59.150Z,98627.63
2018-12-05T10:44:28.483Z,98628.13
2018-12-05T10:46:57.823Z,98619.04
2018-12-05T10:49:27.230Z,98621.34
2018-12-05T10:51:56.600Z,98607.51
2018-12-05T10:54:26.056Z,98615.53
2018-12-05T10:56:55.364Z,98611.41
2018-12-05T10:59:25.753Z,98602.70
2018-12-05T11:02:00.404Z,98602.91
2018-12-05T11:04:34.988Z,98591.56
2018-12-05T11:07:14.685Z,98594.22
2018-12-05T11:09:49.125Z,98591.59
2018-12-05T11:12:23.638Z,98595.38
2018-12-05T11:14:58.162Z,98597.41
2018-12-05T11:17:32.727Z,98605.91
2018-12-05T11:20:07.474Z,98602.76
2018-12-05T11:22:42.020Z,98601.69
2018-12-05T11:25:16.966Z,98595.31
2018-12-05T11:27:46.237Z,98601.94
2018-12-05T11:30:15.605Z,98596.25
2018-12-05T11:32:44.924Z,98594.63
2018-12-05T11:35:14.328Z,98586.71
2018-12-05T11:37:43.784Z,98588.60
2018-12-05T11:40:13.194Z,98597.20
2018-12-05T11:42:42.712Z,98593.53
2018-12-05T11:45:12.449Z,98590.45
2018-12-05T11:47:41.837Z,98585.42
2018-12-05T11:50:11.193Z,98583.05
2018-12-05T11:52:40.508Z,98570.80
2018-12-05T11:55:09.940Z,98568.30
2018-12-05T11:57:39.348Z,98562.31
2018-12-05T12:00:09.625Z,98563.14
2018-12-05T12:02:38.924Z,98560.16
2018-12-05T12:05:08.770Z,98563.75
2018-12-05T12:07:38.194Z,98556.59
2018-12-05T12:10:07.887Z,98552.79
2018-12-05T12:12:42.511Z,98544.92
2018-12-05T12:15:12.092Z,98539.84
2018-12-05T12:17:42.030Z,98539.75
2018-12-05T12:20:11.584Z,98525.95
2018-12-05T12:22:40.882Z,98526.42
2018-12-05T12:25:10.301Z,98512.58
2018-12-05T12:27:39.657Z,98511.20
2018-12-05T12:30:15.645Z,98519.32
2018-12-05T12:32:40.628Z,98504.71
2018-12-05T12:35:10.138Z,98496.46
2018-12-05T12:37:39.470Z,98495.12
2018-12-05T12:40:09.060Z,98491.83
2018-12-05T12:42:38.437Z,98485.98
2018-12-05T12:45:08.342Z,98478.59
2018-12-05T12:47:37.725Z,98477.95
2018-12-05T12:50:07.652Z,98477.51
2018-12-05T12:52:37.044Z,98472.38
2018-12-05T12:55:07.348Z,98463.30
2018-12-05T12:57:36.732Z,98468.60
2018-12-05T13:00:08.624Z,98450.36
2018-12-05T13:02:38.031Z,98447.10
2018-12-05T13:05:07.778Z,98451.77
2018-12-05T13:07:37.070Z,98450.91
2018-12-05T13:10:07.146Z,98451.63
2018-12-05T13:12:36.513Z,98448.16
2018-12-05T13:15:06.200Z,98449.95
2018-12-05T13:17:35.461Z,98436.42
2018-12-05T13:20:05.173Z,98433.97
2018-12-05T13:22:34.435Z,98434.17
2018-12-05T13:25:03.749Z,98434.44
2018-12-05T13:27:33.018Z,98429.44
2018-12-05T13:30:02.340Z,98427.56
2018-12-05T13:32:31.609Z,98424.77
2018-12-05T13:35:00.960Z,98417.54
2018-12-05T13:37:30.233Z,98412.20
2018-12-05T13:39:59.632Z,98413.27
2018-12-05T13:42:28.905Z,98411.42
2018-12-05T13:44:58.194Z,98411.88
2018-12-05T13:47:27.469Z,98409.52
2018-12-05T13:49:56.970Z,98400.86
2018-12-05T13:52:26.271Z,98402.77
2018-12-05T13:54:55.731Z,98404.89
2018-12-05T13:57:25.052Z,98407.61
2018-12-05T13:59:54.367Z,98404.20
2018-12-05T14:02:23.717Z,98404.03
2018-12-05T14:04:53.043Z,98399.11
2018-12-05T14:07:22.409Z,98405.94
2018-12-05T14:09:51.741Z,98399.58
2018-12-05T14:12:26.473Z,98396.41
2018-12-05T14:14:56.182Z,98396.44
2018-12-05T14:17:25.542Z,98395.84
2018-12-05T14:19:54.873Z,98393.08
2018-12-05T14:22:24.169Z,98400.94
2018-12-05T14:24:53.757Z,98395.36
2018-12-05T14:27:23.154Z,98389.20
2018-12-05T14:29:52.466Z,98381.58
2018-12-05T14:32:21.834Z,98376.79
2018-12-05T14:34:51.208Z,98374.06
2018-12-05T14:37:20.493Z,98375.98
2018-12-05T14:39:49.796Z,98371.86
2018-12-05T14:42:19.277Z,98370.66
2018-12-05T14:44:48.714Z,98368.85
2018-12-05T14:47:18.066Z,98363.88
2018-12-05T14:49:47.502Z,98364.14
2018-12-05T14:52:17.490Z,98369.81
2018-12-05T14:54:47.284Z,98365.34
2018-12-05T14:57:16.582Z,98374.23
2018-12-05T14:59:45.881Z,98375.56
2018-12-05T15:02:15.181Z,98366.46
2018-12-05T15:04:44.476Z,98361.36
2018-12-05T15:07:13.753Z,98346.91
2018-12-05T15:09:43.059Z,98343.63
2018-12-05T15:12:12.345Z,98340.03
2018-12-05T15:14:41.688Z,98346.02
2018-12-05T15:17:11.977Z,98340.41
2018-12-05T15:19:41.400Z,98339.91
2018-12-05T15:22:10.744Z,98334.23
2018-12-05T15:24:40.086Z,98339.09
2018-12-05T15:27:09.500Z,98330.89
2018-12-05T15:29:38.901Z,98333.02
2018-12-05T15:32:08.303Z,98326.41
2018-12-05T15:34:37.624Z,98321.84
2018-12-05T15:37:07.101Z,98314.48
2018-12-05T15:39:36.525Z,98307.42
2018-12-05T15:42:05.837Z,98312.41
2018-12-05T15:44:35.188Z,98308.75
2018-12-05T15:47:04.460Z,98309.18
2018-12-05T15:49:33.798Z,98311.03
2018-12-05T15:52:03.118Z,98301.76
2018-12-05T15:54:32.604Z,98304.53
2018-12-05T15:57:09.682Z,98296.89
2018-12-05T15:59:33.343Z,98296.31
2018-12-05T16:02:02.850Z,98296.43
2018-12-05T16:04:32.354Z,98295.00
2018-12-05T16:07:01.746Z,98293.48
2018-12-05T16:09:31.199Z,98293.33
2018-12-05T16:12:00.501Z,98290.25
2018-12-05T16:14:30.021Z,98289.01
2018-12-05T16:16:59.408Z,98289.31
2018-12-05T16:19:28.930Z,98288.61
2018-12-05T16:21:58.395Z,98289.39
2018-12-05T16:24:27.797Z,98292.58
2018-12-05T16:26:57.076Z,98295.89
2018-12-05T16:29:26.655Z,98287.67
2018-12-05T16:31:55.989Z,98292.66
2018-12-05T16:34:26.604Z,98289.58
2018-12-05T16:36:56.774Z,98289.50
2018-12-05T16:39:26.238Z,98282.14
2018-12-05T16:41:55.660Z,98275.95
2018-12-05T16:44:24.977Z,98274.33
2018-12-05T16:46:54.414Z,98276.47
2018-12-05T16:49:23.784Z,98270.66
2018-12-05T16:51:53.681Z,98266.62
2018-12-05T16:54:23.794Z,98260.69
2018-12-05T16:56:53.382Z,98263.11
2018-12-05T16:59:22.677Z,98259.52
2018-12-05T17:01:51.978Z,98260.56
2018-12-05T17:04:22.119Z,98260.21
2018-12-05T17:06:51.741Z,98260.34
2018-12-05T17:09:26.097Z,98264.54
2018-12-05T17:11:52.485Z,98263.61
2018-12-05T17:14:21.830Z,98262.52
2018-12-05T17:16:51.427Z,98261.91
2018-12-05T17:19:21.385Z,98255.27
2018-12-05T17:21:50.865Z,98256.48
2018-12-05T17:24:20.235Z,98257.43
2018-12-05T17:26:49.580Z,98249.69
2018-12-05T17:29:18.866Z,98242.28
2018-12-05T17:31:50.296Z,98236.89
2018-12-05T17:34:19.663Z,98238.89
2018-12-05T17:36:49.550Z,98235.76
2018-12-05T17:39:19.296Z,98225.09
2018-12-05T17:41:48.640Z,98223.39
2018-12-05T17:44:18.448Z,98214.05
2018-12-05T17:46:47.950Z,98211.03
2018-12-05T17:49:17.245Z,98209.33
2018-12-05T17:51:46.606Z,98203.89
2018-12-05T17:54:17.007Z,98203.97
2018-12-05T17:56:46.839Z,98202.77
2018-12-05T17:59:16.982Z,98199.08
2018-12-05T18:01:47.197Z,98192.57
2018-12-05T18:04:17.307Z,98189.78
2018-12-05T18:06:47.381Z,98181.52
2018-12-05T18:09:16.903Z,98181.58
2018-12-05T18:11:46.242Z,98176.33
2018-12-05T18:14:15.633Z,98184.38
2018-12-05T18:16:50.000Z,98188.03
2018-12-05T18:19:23.363Z,98179.83
2018-12-05T18:21:55.278Z,98176.99
2018-12-05T18:24:24.668Z,98178.20
2018-12-05T18:26:54.113Z,98175.98
2018-12-05T18:29:23.416Z,98175.59
2018-12-05T18:31:52.807Z,98175.28
2018-12-05T18:34:22.245Z,98175.51
2018-12-05T18:36:51.620Z,98161.67
2018-12-05T18:39:21.034Z,98169.09
2018-12-05T18:41:50.357Z,98159.03
2018-12-05T18:44:19.765Z,98153.86
2018-12-05T18:46:49.279Z,98153.16
2018-12-05T18:49:20.162Z,98155.09
2018-12-05T18:51:50.047Z,98154.79
2018-12-05T18:54:19.479Z,98157.01
2018-12-05T18:56:48.829Z,98146.83
2018-12-05T18:59:18.248Z,98135.16
2018-12-05T19:01:47.879Z,98132.83
2018-12-05T19:04:17.296Z,98123.34
2018-12-05T19:06:46.997Z,98135.47
2018-12-05T19:09:16.750Z,98134.34
2018-12-05T19:11:46.313Z,98145.19
2018-12-05T19:14:20.778Z,98135.63
2018-12-05T19:16:50.259Z,98145.16
2018-12-05T19:19:19.836Z,98142.23
2018-12-05T19:21:49.313Z,98130.50
2018-12-05T19:24:20.956Z,98130.22
2018-12-05T19:26:51.569Z,98122.29
2018-12-05T19:29:21.114Z,98115.06
2018-12-05T19:31:50.488Z,98125.67
2018-12-05T19:34:20.159Z,98134.63
2018-12-05T19:36:50.853Z,98143.88
2018-12-05T19:39:20.361Z,98143.79
2018-12-05T19:41:51.329Z,98136.98
2018-12-05T19:44:20.894Z,98126.11
2018-12-05T19:46:50.967Z,98123.89
2018-12-05T19:49:21.605Z,98120.74
2018-12-05T19:51:52.503Z,98120.86
2018-12-05T19:54:21.992Z,98102.98
2018-12-05T19:56:51.451Z,98098.12
2018-12-05T19:59:21.092Z,98089.46
2018-12-05T20:01:50.619Z,98072.79
2018-12-05T20:04:19.877Z,98068.83
2018-12-05T20:06:49.326Z,98057.63
2018-12-05T20:09:18.861Z,98068.00
2018-12-05T20:11:48.168Z,98077.52
2018-12-05T20:14:22.911Z,98082.69
2018-12-05T20:16:52.353Z,98073.82
2018-12-05T20:19:21.693Z,98073.58
2018-12-05T20:21:51.040Z,98063.19
2018-12-05T20:24:20.637Z,98065.45
2018-12-05T20:26:49.988Z,98057.01
2018-12-05T20:29:19.378Z,98067.40
2018-12-05T20:31:50.808Z,98056.91
2018-12-05T20:34:20.103Z,98054.89
2018-12-05T20:36:50.616Z,98047.19
2018-12-05T20:39:26.022Z,98056.32
2018-12-05T20:42:00.647Z,98047.88
2018-12-05T20:44:31.117Z,98054.61
2018-12-05T20:47:00.721Z,98057.03
2018-12-05T20:49:31.150Z,98050.03
2018-12-05T20:52:00.484Z,98047.59
2018-12-05T20:54:30.155Z,98046.70
2018-12-05T20:56:59.590Z,98042.61
2018-12-05T20:59:28.919Z,98033.16
2018-12-05T21:01:58.350Z,98034.56
2018-12-05T21:04:27.644Z,98040.86
2018-12-05T21:06:57.022Z,98046.76
2018-12-05T21:09:26.388Z,98045.36
2018-12-05T21:11:55.817Z,98048.71
2018-12-05T21:14:26.549Z,98055.32
2018-12-05T21:16:56.177Z,98053.41
2018-12-05T21:19:25.484Z,98054.12
2018-12-05T21:21:54.803Z,98046.11
2018-12-05T21:24:24.133Z,98022.02
2018-12-05T21:26:53.490Z,98014.39
2018-12-05T21:29:22.779Z,98023.84
2018-12-05T21:31:52.101Z,98005.55
2018-12-05T21:34:21.417Z,97998.54
2018-12-05T21:36:50.692Z,98004.53
2018-12-05T21:39:20.601Z,98007.69
2018-12-05T21:41:51.295Z,98021.33
2018-12-05T21:44:20.634Z,98000.62
2018-12-05T21:46:49.930Z,98008.03
2018-12-05T21:49:19.262Z,98023.40
2018-12-05T21:51:48.632Z,98021.08
2018-12-05T21:54:18.001Z,98014.58
2018-12-05T21:56:50.283Z,98012.17
2018-12-05T21:59:19.628Z,98004.45
2018-12-05T22:01:48.896Z,97996.45
2018-12-05T22:04:18.239Z,98006.16
2018-12-05T22:06:47.517Z,98010.55
2018-12-05T22:09:16.861Z,98009.53
2018-12-05T22:11:46.286Z,98006.78
2018-12-05T22:14:15.609Z,98005.88
2018-12-05T22:16:44.963Z,98026.97
2018-12-05T22:19:14.365Z,98021.19
2018-12-05T22:21:43.684Z,98039.29
2018-12-05T22:24:13.027Z,98031.36
2018-12-05T22:26:42.489Z,98041.19
2018-12-05T22:29:11.821Z,98036.10
2018-12-05T22:31:41.134Z,98032.33
2018-12-05T22:34:10.492Z,98021.27
2018-12-05T22:36:39.778Z,98030.32
2018-12-05T22:39:10.312Z,98037.04
2018-12-05T22:41:39.726Z,98042.52
2018-12-05T22:44:09.112Z,98038.95
2018-12-05T22:46:38.713Z,98049.50
2018-12-05T22:49:08.057Z,98030.39
2018-12-05T22:51:37.410Z,98019.39
2018-12-05T22:54:06.821Z,98014.67
2018-12-05T22:56:36.196Z,98005.71
2018-12-05T22:59:05.706Z,98015.93
2018-12-05T23:01:35.020Z,98003.45
2018-12-05T23:04:04.642Z,98000.93
2018-12-05T23:06:33.699Z,98008.76
2018-12-05T23:09:03.042Z,98019.13
2018-12-05T23:11:32.380Z,98019.52
2018-12-05T23:14:01.732Z,98014.84
2018-12-05T23:16:31.068Z,98016.80
2018-12-05T23:19:00.402Z,98015.14
2018-12-05T23:21:29.699Z,98020.00
2018-12-05T23:23:59.085Z,98009.19
2018-12-05T23:26:28.435Z,98006.64
2018-12-05T23:28:57.790Z,98001.30
2018-12-05T23:31:27.276Z,98003.44
2018-12-05T23:33:56.737Z,97996.78
2018-12-05T23:36:26.010Z,97999.55
2018-12-05T23:38:55.348Z,97995.64
2018-12-05T23:41:24.649Z,97998.74
2018-12-05T23:43:54.062Z,98001.39
2018-12-05T23:46:23.340Z,98003.78
2018-12-05T23:48:52.840Z,98007.23
2018-12-05T23:51:22.149Z,98009.67
2018-12-05T23:53:51.466Z,98020.76
2018-12-05T23:56:20.868Z,98030.72
2018-12-05T23:58:50.243Z,98044.23
